createdAt,value
2022-12-28T00:00:31.790Z,101276.28
2022-12-28T00:05:33.352Z,101262.47
2022-12-28T00:11:08.997Z,101246.91
2022-12-28T00:15:56.286Z,101239.16
2022-12-28T00:20:59.133Z,101231.38
2022-12-28T00:26:13.851Z,101226.22
2022-12-28T00:31:16.159Z,101217.59
2022-12-28T00:36:17.694Z,101205.50
2022-12-28T00:41:19.328Z,101192.56
2022-12-28T00:46:20.803Z,101183.94
2022-12-28T00:51:22.334Z,101173.59
2022-12-28T00:56:23.979Z,101179.63
2022-12-28T01:01:26.953Z,101160.66
2022-12-28T01:06:28.859Z,101139.94
2022-12-28T01:11:30.857Z,101134.72
2022-12-28T01:16:34.768Z,101126.09
2022-12-28T01:21:37.025Z,101126.94
2022-12-28T01:26:38.469Z,101115.75
2022-12-28T01:31:39.965Z,101117.47
2022-12-28T01:36:41.577Z,101101.06
2022-12-28T01:41:43.377Z,101101.06
2022-12-28T01:46:50.953Z,101088.13
2022-12-28T01:52:00.680Z,101075.22
2022-12-28T01:57:03.177Z,101071.78
2022-12-28T02:02:05.133Z,101052.81
2022-12-28T02:07:06.796Z,101044.19
2022-12-28T02:12:13.097Z,101026.06
2022-12-28T02:17:14.729Z,101016.59
2022-12-28T02:22:50.398Z,101013.13
2022-12-28T02:28:29.344Z,101002.78
2022-12-28T02:34:03.282Z,100990.72
2022-12-28T02:39:19.087Z,100968.31
2022-12-28T02:44:59.292Z,100952.78
2022-12-28T02:50:07.311Z,100938.97
2022-12-28T02:55:46.569Z,100917.44
2022-12-28T03:00:57.311Z,100910.56
2022-12-28T03:06:35.434Z,100907.09
2022-12-28T03:11:42.708Z,100896.75
2022-12-28T03:17:06.429Z,100864.88
2022-12-28T03:22:30.201Z,100864.88
2022-12-28T03:27:51.407Z,100857.09
2022-12-28T03:32:53.248Z,100848.47
2022-12-28T03:38:01.051Z,100830.38
2022-12-28T03:43:32.846Z,100800.22
2022-12-28T03:48:37.398Z,100799.38
2022-12-28T03:53:45.053Z,100784.72
2022-12-28T03:58:47.325Z,100774.38
2022-12-28T04:03:48.898Z,100752.81
2022-12-28T04:08:50.430Z,100752.84
2022-12-28T04:13:52.004Z,100740.78
2022-12-28T04:18:53.562Z,100719.22
2022-12-28T04:23:56.862Z,100691.69
2022-12-28T04:29:01.949Z,100695.97
2022-12-28T04:34:03.827Z,100683.88
2022-12-28T04:39:06.219Z,100658.84
2022-12-28T04:44:07.778Z,100664.03
2022-12-28T04:49:09.222Z,100656.31
2022-12-28T04:54:14.237Z,100636.47
2022-12-28T04:59:15.695Z,100639.00
2022-12-28T05:04:17.190Z,100624.41
2022-12-28T05:09:19.392Z,100611.47
2022-12-28T05:14:20.933Z,100608.88
2022-12-28T05:19:22.346Z,100595.06
2022-12-28T05:24:23.834Z,100580.38
2022-12-28T05:29:25.309Z,100574.38
2022-12-28T05:34:26.784Z,100572.59
2022-12-28T05:39:28.226Z,100558.78
2022-12-28T05:44:30.537Z,100578.53
2022-12-28T05:49:31.992Z,100557.88
2022-12-28T05:54:33.463Z,100551.81
2022-12-28T05:59:34.932Z,100554.38
2022-12-28T06:04:36.442Z,100553.47
2022-12-28T06:09:37.950Z,100535.38
2022-12-28T06:14:39.415Z,100525.84
2022-12-28T06:19:40.935Z,100509.38
2022-12-28T06:24:42.419Z,100531.81
2022-12-28T06:29:43.916Z,100522.28
2022-12-28T06:34:45.408Z,100502.28
2022-12-28T06:39:46.846Z,100504.00
2022-12-28T06:44:48.330Z,100497.97
2022-12-28T06:49:49.815Z,100475.56
2022-12-28T06:54:51.320Z,100476.41
2022-12-28T06:59:52.806Z,100471.97
2022-12-28T07:04:54.249Z,100464.19
2022-12-28T07:09:55.769Z,100461.56
2022-12-28T07:14:57.274Z,100465.03
2022-12-28T07:19:58.690Z,100450.28
2022-12-28T07:25:00.204Z,100464.16
2022-12-28T07:30:02.135Z,100451.03
2022-12-28T07:35:04.308Z,100455.38
2022-12-28T07:40:06.543Z,100451.84
2022-12-28T07:45:10.705Z,100450.94
2022-12-28T07:50:12.163Z,100462.88
2022-12-28T07:55:14.728Z,100449.88
2022-12-28T08:00:16.277Z,100445.44
2022-12-28T08:05:17.720Z,100450.53
2022-12-28T08:10:19.183Z,100439.22
2022-12-28T08:15:20.619Z,100432.19
2022-12-28T08:20:22.951Z,100436.41
2022-12-28T08:25:24.877Z,100432.00
2022-12-28T08:30:26.285Z,100427.44
2022-12-28T08:35:27.728Z,100418.72
2022-12-28T08:40:30.047Z,100414.34
2022-12-28T08:45:31.605Z,100415.09
2022-12-28T08:50:33.189Z,100422.69
2022-12-28T08:55:35.364Z,100430.34
2022-12-28T09:00:36.872Z,100427.66
2022-12-28T09:05:41.600Z,100432.75
2022-12-28T09:10:43.101Z,100442.88
2022-12-28T09:15:44.663Z,100430.72
2022-12-28T09:20:48.114Z,100425.31
2022-12-28T09:25:49.670Z,100431.47
2022-12-28T09:30:51.186Z,100452.94
2022-12-28T09:35:57.699Z,100438.97
2022-12-28T09:40:59.480Z,100436.19
2022-12-28T09:46:01.027Z,100449.81
2022-12-28T09:51:02.746Z,100447.91
2022-12-28T09:56:23.337Z,100440.88
2022-12-28T10:01:26.433Z,100452.13
2022-12-28T10:06:36.639Z,100443.22
2022-12-28T10:11:43.446Z,100447.41
2022-12-28T10:16:48.682Z,100442.94
2022-12-28T10:22:00.345Z,100443.41
2022-12-28T10:27:05.426Z,100438.00
2022-12-28T10:32:15.109Z,100440.31
2022-12-28T10:37:18.845Z,100449.78
2022-12-28T10:42:27.743Z,100446.22
2022-12-28T10:47:46.377Z,100443.03
2022-12-28T10:52:57.855Z,100442.81
2022-12-28T10:58:29.532Z,100438.00
2022-12-28T11:03:37.507Z,100440.50
2022-12-28T11:08:40.059Z,100422.75
2022-12-28T11:13:42.879Z,100432.31
2022-12-28T11:18:44.385Z,100432.53
2022-12-28T11:23:47.815Z,100435.94
2022-12-28T11:28:51.747Z,100441.91
2022-12-28T11:33:58.371Z,100446.16
2022-12-28T11:39:25.970Z,100436.59
2022-12-28T11:44:30.308Z,100433.13
2022-12-28T11:49:35.446Z,100438.53
2022-12-28T11:54:57.803Z,100435.94
2022-12-28T12:00:22.582Z,100439.31
2022-12-28T12:05:37.195Z,100426.06
2022-12-28T12:10:43.359Z,100435.50
2022-12-28T12:15:45.556Z,100437.38
2022-12-28T12:21:02.694Z,100433.81
2022-12-28T12:26:17.107Z,100432.84
2022-12-28T12:31:24.189Z,100428.34
2022-12-28T12:36:40.281Z,100433.44
2022-12-28T12:42:14.198Z,100427.19
2022-12-28T12:47:24.087Z,100414.22
2022-12-28T12:52:39.210Z,100416.03
2022-12-28T12:58:21.759Z,100416.75
2022-12-28T13:03:44.849Z,100424.38
2022-12-28T13:08:47.227Z,100425.50
2022-12-28T13:13:51.953Z,100429.91
2022-12-28T13:18:58.024Z,100423.00
2022-12-28T13:23:59.665Z,100421.38
2022-12-28T13:29:03.555Z,100422.41
2022-12-28T13:34:16.489Z,100409.41
2022-12-28T13:39:19.643Z,100392.94
2022-12-28T13:44:45.267Z,100391.19
2022-12-28T13:49:56.740Z,100389.50
2022-12-28T13:55:04.554Z,100396.50
2022-12-28T14:00:08.984Z,100395.75
2022-12-28T14:05:31.162Z,100386.31
2022-12-28T14:10:33.135Z,100383.88
2022-12-28T14:15:41.186Z,100383.28
2022-12-28T14:21:02.457Z,100382.50
2022-12-28T14:26:08.026Z,100381.78
2022-12-28T14:31:12.551Z,100375.88
2022-12-28T14:36:21.832Z,100362.84
2022-12-28T14:41:33.307Z,100368.00
2022-12-28T14:46:37.935Z,100355.94
2022-12-28T14:51:44.076Z,100354.56
2022-12-28T14:56:53.876Z,100347.72
2022-12-28T15:01:55.925Z,100339.59
2022-12-28T15:06:58.348Z,100342.41
2022-12-28T15:12:21.757Z,100329.19
2022-12-28T15:17:25.628Z,100317.72
2022-12-28T15:22:31.231Z,100317.69
2022-12-28T15:27:32.842Z,100316.09
2022-12-28T15:32:34.370Z,100319.47
2022-12-28T15:37:35.821Z,100301.53
2022-12-28T15:42:40.604Z,100305.69
2022-12-28T15:47:42.867Z,100297.19
2022-12-28T15:52:44.361Z,100293.78
2022-12-28T15:57:45.846Z,100286.88
2022-12-28T16:02:47.622Z,100280.44
2022-12-28T16:07:49.261Z,100277.97
2022-12-28T16:12:51.396Z,100269.28
2022-12-28T16:17:57.271Z,100264.28
2022-12-28T16:22:59.134Z,100248.66
2022-12-28T16:28:00.626Z,100248.59
2022-12-28T16:33:02.077Z,100237.47
2022-12-28T16:38:03.566Z,100248.66
2022-12-28T16:43:05.769Z,100248.59
2022-12-28T16:48:09.789Z,100246.84
2022-12-28T16:53:11.539Z,100247.69
2022-12-28T16:58:13.102Z,100243.66
2022-12-28T17:03:14.678Z,100235.72
2022-12-28T17:08:16.515Z,100227.22
2022-12-28T17:13:18.411Z,100217.84
2022-12-28T17:18:19.994Z,100212.50
2022-12-28T17:23:21.620Z,100205.00
2022-12-28T17:28:23.634Z,100197.31
2022-12-28T17:33:25.079Z,100200.94
2022-12-28T17:38:26.641Z,100192.38
2022-12-28T17:43:28.493Z,100180.56
2022-12-28T17:48:30.381Z,100181.25
2022-12-28T17:53:32.553Z,100163.34
2022-12-28T17:58:34.327Z,100161.59
2022-12-28T18:03:36.439Z,100159.81
2022-12-28T18:08:38.227Z,100164.06
2022-12-28T18:13:44.017Z,100150.38
2022-12-28T18:18:46.055Z,100136.44
2022-12-28T18:23:49.017Z,100127.75
2022-12-28T18:28:50.619Z,100130.25
2022-12-28T18:33:52.688Z,100116.50
2022-12-28T18:38:54.330Z,100113.09
2022-12-28T18:43:57.024Z,100106.72
2022-12-28T18:49:00.497Z,100099.53
2022-12-28T18:54:02.013Z,100096.31
2022-12-28T18:59:03.548Z,100097.88
2022-12-28T19:04:07.719Z,100085.72
2022-12-28T19:09:11.088Z,100084.78
2022-12-28T19:14:14.315Z,100074.28
2022-12-28T19:19:17.487Z,100064.06
2022-12-28T19:24:19.406Z,100064.88
2022-12-28T19:29:20.944Z,100062.28
2022-12-28T19:34:22.568Z,100059.84
2022-12-28T19:39:24.126Z,100047.03
2022-12-28T19:44:25.610Z,100049.41
2022-12-28T19:49:27.088Z,100035.72
2022-12-28T19:54:29.149Z,100029.63
2022-12-28T19:59:30.667Z,100041.88
2022-12-28T20:04:32.348Z,100020.22
2022-12-28T20:09:34.840Z,100005.59
2022-12-28T20:14:36.348Z,99996.88
2022-12-28T20:19:38.483Z,99995.13
2022-12-28T20:24:40.013Z,99986.72
2022-12-28T20:29:41.451Z,99985.94
2022-12-28T20:34:43.165Z,99975.53
2022-12-28T20:39:44.641Z,99986.91
2022-12-28T20:44:46.273Z,99961.78
2022-12-28T20:49:47.744Z,99956.81
2022-12-28T20:54:49.175Z,99937.84
2022-12-28T20:59:50.626Z,99928.47
2022-12-28T21:04:52.136Z,99925.06
2022-12-28T21:09:53.634Z,99912.00
2022-12-28T21:14:55.095Z,99883.72
2022-12-28T21:19:56.504Z,99893.03
2022-12-28T21:24:57.980Z,99865.31
2022-12-28T21:29:59.532Z,99852.41
2022-12-28T21:35:01.155Z,99863.63
2022-12-28T21:40:05.604Z,99855.19
2022-12-28T21:45:07.896Z,99834.44
2022-12-28T21:50:10.710Z,99848.31
2022-12-28T21:55:30.909Z,99832.59
2022-12-28T22:00:50.727Z,99817.88
2022-12-28T22:06:04.120Z,99807.59
2022-12-28T22:11:24.529Z,99815.53
2022-12-28T22:16:26.046Z,99794.59
2022-12-28T22:21:28.126Z,99785.75
2022-12-28T22:26:29.565Z,99784.09
2022-12-28T22:31:31.104Z,99770.38
2022-12-28T22:36:33.347Z,99778.25
2022-12-28T22:41:34.828Z,99772.00
2022-12-28T22:46:36.482Z,99766.06
2022-12-28T22:51:38.062Z,99760.78
2022-12-28T22:56:39.533Z,99750.13
2022-12-28T23:01:41.484Z,99751.97
2022-12-28T23:06:43.266Z,99750.91
2022-12-28T23:11:44.865Z,99745.03
2022-12-28T23:16:47.095Z,99752.66
2022-12-28T23:22:07.106Z,99746.69
2022-12-28T23:27:21.908Z,99748.19
2022-12-28T23:32:23.423Z,99730.69
2022-12-28T23:37:24.961Z,99710.53
2022-12-28T23:42:26.616Z,99714.03
2022-12-28T23:47:28.182Z,99706.22
2022-12-28T23:52:29.723Z,99707.69
2022-12-28T23:57:31.297Z,99694.59
